createdAt,value
2022-12-26T00:02:41.109Z,25.60
2022-12-26T00:12:40.919Z,23.90
2022-12-26T00:22:40.847Z,27.30
2022-12-26T00:32:40.820Z,24.20
2022-12-26T00:42:40.846Z,22.70
2022-12-26T00:52:41.207Z,21.40
2022-12-26T01:02:41.276Z,20.40
2022-12-26T01:12:40.876Z,23.60
2022-12-26T01:22:40.924Z,21.80
2022-12-26T01:32:40.824Z,25.00
2022-12-26T01:42:40.929Z,24.80
2022-12-26T01:52:40.854Z,22.50
2022-12-26T02:02:40.966Z,23.00
2022-12-26T02:12:40.846Z,22.10
2022-12-26T02:22:40.921Z,22.60
2022-12-26T02:32:41.049Z,26.40
2022-12-26T02:42:40.965Z,21.60
2022-12-26T02:52:40.876Z,23.50
2022-12-26T03:02:41.109Z,23.50
2022-12-26T03:12:40.966Z,24.60
2022-12-26T03:22:40.914Z,22.80
2022-12-26T03:32:41.030Z,20.70
2022-12-26T03:42:40.895Z,21.90
2022-12-26T03:52:40.983Z,22.70
2022-12-26T04:02:40.882Z,23.80
2022-12-26T04:12:40.937Z,24.40
2022-12-26T04:22:40.950Z,22.10
2022-12-26T04:32:40.895Z,22.70
2022-12-26T04:42:40.918Z,21.50
2022-12-26T04:52:40.893Z,23.80
2022-12-26T05:02:40.983Z,21.40
2022-12-26T05:12:40.929Z,22.20
2022-12-26T05:22:41.351Z,23.30
2022-12-26T05:32:40.910Z,22.50
2022-12-26T05:42:40.940Z,23.30
2022-12-26T05:52:40.981Z,23.70
2022-12-26T06:02:41.040Z,21.90
2022-12-26T06:12:41.064Z,20.60
2022-12-26T06:22:40.940Z,23.20
2022-12-26T06:32:40.936Z,19.60
2022-12-26T06:42:40.964Z,23.40
2022-12-26T07:02:41.101Z,19.60
2022-12-26T07:12:40.997Z,19.80
2022-12-26T07:22:40.969Z,17.80
2022-12-26T07:32:40.968Z,20.20
2022-12-26T07:42:40.984Z,17.00
2022-12-26T07:52:40.954Z,15.20
2022-12-26T08:02:41.664Z,11.00
2022-12-26T08:12:40.968Z,12.30
2022-12-26T08:22:40.961Z,16.20
2022-12-26T08:32:44.212Z,18.70
2022-12-26T08:42:56.191Z,15.40
2022-12-26T08:52:40.997Z,17.40
2022-12-26T09:02:41.210Z,16.10
2022-12-26T09:12:40.990Z,14.20
2022-12-26T09:22:41.019Z,12.30
2022-12-26T09:32:41.025Z,13.50
2022-12-26T09:42:41.031Z,13.40
2022-12-26T09:52:41.035Z,13.60
2022-12-26T10:02:41.045Z,13.00
2022-12-26T10:12:41.010Z,12.50
2022-12-26T10:22:41.016Z,10.50
2022-12-26T10:32:41.012Z,10.70
2022-12-26T10:42:41.067Z,11.70
2022-12-26T10:52:41.035Z,14.60
2022-12-26T11:02:41.308Z,11.50
2022-12-26T11:12:41.076Z,10.50
2022-12-26T11:22:41.079Z,10.30
2022-12-26T11:32:41.042Z,8.60
2022-12-26T11:42:41.049Z,10.10
2022-12-26T11:52:41.189Z,8.40
2022-12-26T12:02:41.100Z,8.90
2022-12-26T12:12:41.130Z,8.30
2022-12-26T12:22:41.085Z,6.60
2022-12-26T12:32:41.064Z,8.30
2022-12-26T12:42:41.105Z,6.90
2022-12-26T12:52:41.069Z,6.30
2022-12-26T13:02:41.169Z,9.30
2022-12-26T13:12:41.107Z,7.30
2022-12-26T13:22:41.234Z,6.80
2022-12-26T13:32:46.336Z,5.60
2022-12-26T13:42:41.133Z,6.00
2022-12-26T13:52:41.098Z,10.00
2022-12-26T14:03:07.660Z,6.00
2022-12-26T14:12:41.136Z,8.60
2022-12-26T14:22:41.105Z,14.10
2022-12-26T14:32:41.151Z,11.50
2022-12-26T14:42:41.124Z,10.20
2022-12-26T14:52:41.254Z,12.30
2022-12-26T15:02:41.294Z,11.70
2022-12-26T15:12:41.127Z,10.50
2022-12-26T15:22:41.125Z,8.90
2022-12-26T15:32:41.162Z,8.90
2022-12-26T15:42:41.134Z,9.10
2022-12-26T15:52:41.139Z,10.40
2022-12-26T16:02:41.439Z,11.00
2022-12-26T16:12:41.149Z,10.30
2022-12-26T16:22:41.188Z,21.50
2022-12-26T16:32:41.201Z,11.20
2022-12-26T16:42:41.189Z,14.20
2022-12-26T16:52:46.250Z,9.40
2022-12-26T17:02:41.481Z,8.90
2022-12-26T17:12:41.206Z,5.30
2022-12-26T17:22:41.397Z,8.70
2022-12-26T17:32:41.343Z,7.20
2022-12-26T17:42:41.363Z,6.50
2022-12-26T17:52:41.202Z,5.40
2022-12-26T18:02:41.284Z,6.90
2022-12-26T18:12:41.221Z,6.50
2022-12-26T18:22:41.826Z,6.90
2022-12-26T18:32:41.273Z,6.80
2022-12-26T18:42:41.410Z,7.90
2022-12-26T18:52:41.314Z,7.50
2022-12-26T19:02:41.656Z,7.40
2022-12-26T19:12:41.665Z,10.80
2022-12-26T19:22:41.281Z,14.30
2022-12-26T19:32:41.416Z,15.60
2022-12-26T19:42:41.292Z,15.00
2022-12-26T19:52:41.378Z,15.20
2022-12-26T20:02:41.526Z,14.90
2022-12-26T20:12:41.294Z,19.00
2022-12-26T20:22:41.280Z,17.10
2022-12-26T20:32:41.418Z,15.60
2022-12-26T20:42:41.345Z,15.80
2022-12-26T20:52:41.414Z,15.10
2022-12-26T21:02:41.515Z,15.80
2022-12-26T21:12:41.969Z,16.80
2022-12-26T21:22:41.347Z,17.70
2022-12-26T21:32:41.361Z,17.90
2022-12-26T21:42:41.293Z,17.60
2022-12-26T21:52:41.276Z,17.70
2022-12-26T22:02:41.511Z,15.80
2022-12-26T22:12:41.307Z,17.20
2022-12-26T22:22:41.319Z,16.60
2022-12-26T22:32:41.593Z,17.00
2022-12-26T22:42:41.282Z,18.10
2022-12-26T22:52:41.334Z,17.40
2022-12-26T23:02:41.658Z,12.80
2022-12-26T23:12:41.353Z,13.90
2022-12-26T23:22:41.331Z,15.00
2022-12-26T23:32:41.323Z,14.20
2022-12-26T23:42:41.297Z,15.00
2022-12-26T23:52:41.387Z,14.30
